KOVL

Olivia Regional Airport

Olivia, Minnesota, USA
METAR KOVL 121815Z AUTO 21004KT 3SM BR OVC006 M04/M05 A2976 RMK AO2
Observed Flight Rules
Dec-12 @ 18:15 UTC (33 minutes ago) Instrument Flight Rules
Wind Visibility Clouds Conditions
210° at 4 knots 3 miles
  • Overcast at 600' AGL
  • Mist
Temperatures Readings
Current -4°C / 25°F
Dewpoint -5°C / 23°F
Humidity 93%
Altimeter 29.76" Hg
Pressure 1008 hPa
Elevation 328
METAR KOVL 121815Z AUTO 21004KT 3SM BR OVC006 M04/M05 A2976 RMK AO2
Observed Flight Rules
Dec-12 @ 18:15 UTC
(33 minutes ago)
IFR
Wind Visibility
210° at 4 knots 3 miles
Clouds
  • Overcast at 600' AGL
Conditions
  • Mist
Temperature Dewpoint
-4°C / 25°F -5°C / 23°F
Humidity Altimeter Pressure
93% 29.76" Hg 1008 hPa